Time;durP1;ratioP1;P1;durP2;ratioP2;P2;SDS_P1;SDS_P2;PMS_P1;PMS_P2;Temp;Humidity;BMP_temperature;BMP_pressure;BME280_temperature;BME280_humidity;BME280_pressure;Samples;Min_cycle;Max_cycle;Signal;HPM_P1;HPM_P2
2023/01/01 00:02:06;;;;;;;22.30;11.02;;;;;;;2.55;97.82;99062.09;5083314;28;20175;-40
2023/01/01 00:04:33;;;;;;;21.92;10.23;;;;;;;2.32;97.80;99017.88;5079329;28;20586;-37
2023/01/01 00:06:59;;;;;;;18.05;9.60;;;;;;;2.62;98.11;99062.00;5080456;28;20113;-39
2023/01/01 00:12:49;;;;;;;13.75;7.50;;;;;;;2.58;98.76;99058.63;5087258;28;20067;-40
2023/01/01 00:15:33;;;;;;;14.57;6.65;;;;;;;2.53;98.75;99068.09;5081817;28;20036;-39
2023/01/01 00:17:59;;;;;;;17.17;7.03;;;;;;;2.50;99.28;99063.84;5071557;28;20598;-39
2023/01/01 00:20:25;;;;;;;14.95;7.55;;;;;;;2.47;99.43;99045.91;5073294;28;20166;-40
2023/01/01 00:22:51;;;;;;;18.02;7.18;;;;;;;2.38;99.87;99006.72;5082076;28;20043;-40
2023/01/01 00:25:36;;;;;;;13.50;7.32;;;;;;;2.55;99.79;99031.28;5089284;28;20051;-39
2023/01/01 00:28:20;;;;;;;15.07;6.30;;;;;;;2.59;99.72;99028.69;5077644;28;20427;-39
2023/01/01 00:31:27;;;;;;;15.90;6.53;;;;;;;2.54;99.64;99019.34;5089880;28;20048;-40
2023/01/01 00:34:13;;;;;;;10.45;5.90;;;;;;;2.58;99.78;99016.72;5082554;28;20071;-40
2023/01/01 00:37:17;;;;;;;10.60;6.15;;;;;;;2.52;100.00;99013.34;5095961;28;20068;-41
2023/01/01 00:40:22;;;;;;;11.73;6.68;;;;;;;2.54;100.00;99011.63;5081538;28;20486;-40
2023/01/01 00:42:48;;;;;;;10.95;5.68;;;;;;;2.55;100.00;99000.50;5083352;28;20059;-40
2023/01/01 00:45:14;;;;;;;9.25;5.30;;;;;;;2.41;99.98;98968.19;5054166;28;20496;-39
2023/01/01 00:47:58;;;;;;;11.23;4.97;;;;;;;2.53;100.00;98973.16;5082021;28;20676;-41
2023/01/01 00:50:24;;;;;;;10.75;5.15;;;;;;;2.56;100.00;98970.56;5078923;28;20435;-40
2023/01/01 00:53:08;;;;;;;10.85;4.63;;;;;;;2.59;100.00;98977.38;5080552;28;20032;-39
2023/01/01 00:55:55;;;;;;;10.52;4.40;;;;;;;2.64;99.96;98971.31;5069834;28;20045;-40
2023/01/01 00:58:39;;;;;;;8.48;5.05;;;;;;;2.60;100.00;98973.94;5084152;28;20050;-39
2023/01/01 01:01:24;;;;;;;11.63;5.82;;;;;;;2.58;100.00;98966.25;5085429;28;20060;-41
2023/01/01 01:04:27;;;;;;;7.18;3.60;;;;;;;2.59;100.00;98964.53;5082215;28;20530;-40
2023/01/01 01:07:30;;;;;;;9.82;4.65;;;;;;;2.56;100.00;98955.19;5085341;28;20036;-39
2023/01/01 01:10:15;;;;;;;6.53;3.67;;;;;;;2.55;100.00;98949.19;5086504;28;20032;-39
2023/01/01 01:12:42;;;;;;;5.75;3.15;;;;;;;2.15;100.00;98880.53;5084669;28;20130;-41
2023/01/01 01:15:08;;;;;;;7.95;3.92;;;;;;;2.54;100.00;98941.50;5084703;28;20036;-41
2023/01/01 01:18:11;;;;;;;9.57;4.15;;;;;;;2.58;100.00;98924.34;5073413;28;20051;-50
2023/01/01 01:20:56;;;;;;;7.35;3.80;;;;;;;2.60;100.00;98915.78;5083318;28;20035;-41
2023/01/01 01:23:22;;;;;;;6.60;3.95;;;;;;;2.65;100.00;98924.25;5087046;28;20081;-39
2023/01/01 01:26:11;;;;;;;5.65;3.50;;;;;;;2.61;100.00;98911.50;5087026;28;20087;-39
2023/01/01 01:28:37;;;;;;;5.22;3.60;;;;;;;2.66;100.00;98917.41;5071411;28;20488;-40
2023/01/01 01:31:21;;;;;;;6.15;3.40;;;;;;;2.65;100.00;98920.84;5086489;28;20193;-40
2023/01/01 01:34:06;;;;;;;7.30;3.63;;;;;;;2.67;100.00;98911.41;5090293;28;20039;-40
2023/01/01 01:37:10;;;;;;;5.65;3.92;;;;;;;2.70;100.00;98908.78;5090296;28;20097;-39
2023/01/01 01:40:16;;;;;;;9.75;4.47;;;;;;;2.68;99.92;98908.78;5084519;28;20044;-40
2023/01/01 01:43:38;;;;;;;6.78;3.70;;;;;;;2.66;99.89;98895.16;5088082;28;20407;-40
2023/01/01 01:46:41;;;;;;;4.60;2.97;;;;;;;2.67;99.68;98896.81;5091106;28;20031;-39
2023/01/01 01:49:46;;;;;;;5.55;3.60;;;;;;;2.66;99.66;98909.72;5089425;28;20040;-40
2023/01/01 01:52:31;;;;;;;6.00;3.13;;;;;;;2.47;99.44;98871.47;5090011;28;20040;-39
2023/01/01 01:55:15;;;;;;;6.10;2.90;;;;;;;2.24;99.53;98835.09;5089783;28;20574;-41
2023/01/01 01:58:18;;;;;;;6.95;4.00;;;;;;;2.62;100.00;98880.66;5070818;28;20055;-40
2023/01/01 02:01:40;;;;;;;6.60;3.13;;;;;;;2.66;100.00;98887.47;5089238;28;20056;-40
2023/01/01 02:04:25;;;;;;;6.57;3.90;;;;;;;2.71;100.00;98880.53;5087391;28;20036;-39
2023/01/01 02:07:12;;;;;;;5.13;3.15;;;;;;;2.78;99.79;98876.97;5118746;27;20042;-40
2023/01/01 02:10:15;;;;;;;7.10;4.10;;;;;;;2.83;99.55;98871.78;5089327;28;20047;-40
2023/01/01 02:12:41;;;;;;;8.27;3.45;;;;;;;2.94;99.21;98862.19;5083656;28;20039;-40
2023/01/01 02:16:33;;;;;;;6.65;2.83;;;;;;;2.88;98.40;98863.13;5089707;28;20715;-40
2023/01/01 02:19:37;;;;;;;4.53;3.17;;;;;;;2.83;98.37;98856.38;5094679;28;20135;-40
2023/01/01 02:23:02;;;;;;;4.07;2.45;;;;;;;2.86;98.20;98848.63;5090970;28;20093;-40
2023/01/01 02:25:43;;;;;;;4.75;2.97;;;;;;;2.84;97.94;98853.78;5075389;28;20039;-39
2023/01/01 02:28:46;;;;;;;5.32;2.97;;;;;;;2.81;97.99;98858.13;5109659;28;20040;-39
2023/01/01 02:31:32;;;;;;;6.97;3.15;;;;;;;2.72;97.66;98853.16;5090740;28;20058;-38
2023/01/01 02:34:03;;;;;;;5.30;3.17;;;;;;;2.75;98.14;98850.53;5079897;28;20130;-40
2023/01/01 02:37:07;;;;;;;4.75;3.30;;;;;;;2.77;98.54;98848.78;5104246;28;20048;-40
2023/01/01 02:40:12;;;;;;;4.13;2.70;;;;;;;2.54;98.66;98813.25;5077119;28;21924;-40
2023/01/01 02:43:15;;;;;;;7.55;3.60;;;;;;;2.71;99.07;98836.06;5104131;28;20043;-40
2023/01/01 02:46:22;;;;;;;4.82;3.03;;;;;;;2.79;99.13;98839.34;5069967;28;20562;-40
2023/01/01 02:49:10;;;;;;;4.97;3.00;;;;;;;2.90;99.06;98822.03;5088603;28;20143;-39
2023/01/01 02:51:58;;;;;;;4.57;2.67;;;;;;;2.96;98.84;98816.81;5091619;28;20144;-40
2023/01/01 02:54:46;;;;;;;6.25;3.30;;;;;;;2.61;98.30;98750.69;5100643;28;20047;-39
2023/01/01 02:57:52;;;;;;;4.80;3.22;;;;;;;2.88;98.34;98805.81;5068606;28;20044;-39
2023/01/01 03:00:30;;;;;;;5.50;3.00;;;;;;;2.73;98.43;98762.44;5072786;28;20439;-40
2023/01/01 03:03:08;;;;;;;7.40;3.90;;;;;;;2.93;98.07;98820.25;5089037;28;20097;-40
2023/01/01 03:06:22;;;;;;;6.43;3.78;;;;;;;2.90;98.39;98801.50;5105894;28;20042;-39
2023/01/01 03:09:03;;;;;;;6.78;4.00;;;;;;;3.00;98.33;98808.16;5097901;28;20089;-41
2023/01/01 03:11:35;;;;;;;6.13;3.70;;;;;;;2.99;98.04;98806.47;5080441;28;20044;-39
2023/01/01 03:14:05;;;;;;;5.80;3.40;;;;;;;2.94;97.73;98813.41;5076338;28;20035;-40
2023/01/01 03:17:13;;;;;;;4.50;3.00;;;;;;;2.85;98.43;98806.72;5098391;28;20032;-40
2023/01/01 03:19:40;;;;;;;7.18;4.05;;;;;;;2.86;98.57;98803.28;5093425;28;20139;-40
2023/01/01 03:22:47;;;;;;;6.60;3.80;;;;;;;2.94;98.71;98800.56;5085537;28;20052;-40
2023/01/01 03:25:36;;;;;;;6.75;4.03;;;;;;;2.97;98.51;98780.00;5091062;28;20044;-39
2023/01/01 03:28:24;;;;;;;5.32;3.53;;;;;;;3.00;98.36;98779.91;5106097;28;20039;-39
2023/01/01 03:31:46;;;;;;;6.20;3.72;;;;;;;3.08;98.50;98766.94;5101374;28;20065;-39
2023/01/01 03:34:17;;;;;;;5.80;3.55;;;;;;;3.07;98.36;98752.41;5094056;28;20074;-39
2023/01/01 03:36:51;;;;;;;6.15;4.03;;;;;;;3.06;97.94;98754.13;5091959;28;20039;-40
2023/01/01 03:39:55;;;;;;;5.13;2.60;;;;;;;3.01;97.83;98762.78;5108909;28;20820;-40
2023/01/01 03:42:27;;;;;;;7.43;4.10;;;;;;;2.93;98.37;98745.81;5092662;28;20720;-39
2023/01/01 03:45:14;;;;;;;4.32;2.72;;;;;;;2.91;98.61;98736.47;5093833;28;20059;-40
2023/01/01 03:47:59;;;;;;;5.53;3.40;;;;;;;2.89;98.77;98705.69;5104271;28;20031;-39
2023/01/01 03:50:36;;;;;;;6.57;4.15;;;;;;;2.90;98.70;98714.22;5087999;28;20104;-45
2023/01/01 03:53:28;;;;;;;9.20;4.97;;;;;;;2.94;99.09;98714.13;5086793;28;20515;-39
2023/01/01 03:56:18;;;;;;;8.07;4.78;;;;;;;2.95;99.38;98710.69;5109409;28;20047;-40
2023/01/01 03:59:20;;;;;;;6.57;3.08;;;;;;;3.06;99.08;98720.75;5080068;28;20475;-40
2023/01/01 04:02:25;;;;;;;7.97;4.15;;;;;;;3.06;99.02;98725.91;5092370;28;20583;-38
2023/01/01 04:05:10;;;;;;;5.63;2.88;;;;;;;2.96;99.10;98725.22;5092944;28;20547;-40
2023/01/01 04:07:54;;;;;;;9.40;4.68;;;;;;;2.90;99.30;98727.91;5109317;28;20506;-39
2023/01/01 04:10:39;;;;;;;7.93;4.63;;;;;;;2.81;99.80;98707.56;5102264;28;20047;-41
2023/01/01 04:13:24;;;;;;;6.55;3.78;;;;;;;2.88;100.00;98714.25;5102109;28;20044;-40
2023/01/01 04:16:09;;;;;;;7.95;3.67;;;;;;;2.88;100.00;98721.94;5100789;28;20400;-40
2023/01/01 04:18:36;;;;;;;8.07;4.63;;;;;;;2.95;100.00;98714.97;5088942;28;20039;-39
2023/01/01 04:21:39;;;;;;;7.15;4.28;;;;;;;2.97;100.00;98716.66;5103546;28;21736;-39
2023/01/01 04:24:42;;;;;;;8.40;4.75;;;;;;;2.97;100.00;98716.66;5091205;28;20539;-40
2023/01/01 04:27:08;;;;;;;7.57;4.28;;;;;;;2.89;100.00;98699.69;5102791;28;20396;-39
2023/01/01 04:29:52;;;;;;;5.15;3.70;;;;;;;2.88;100.00;98695.44;5101603;28;20122;-41
2023/01/01 04:32:37;;;;;;;8.02;4.10;;;;;;;2.69;100.00;98651.31;5088443;28;20081;-39
2023/01/01 04:35:22;;;;;;;8.85;4.57;;;;;;;2.82;100.00;98675.91;5089178;28;20032;-39
2023/01/01 04:38:07;;;;;;;7.72;4.47;;;;;;;2.78;100.00;98675.94;5087215;28;20051;-40
2023/01/01 04:40:51;;;;;;;8.52;4.47;;;;;;;2.75;100.00;98683.72;5097394;28;20044;-39
2023/01/01 04:43:36;;;;;;;7.68;4.45;;;;;;;2.80;100.00;98687.91;5101738;28;20046;-40
2023/01/01 04:46:39;;;;;;;8.13;4.68;;;;;;;2.92;100.00;98692.81;5104800;28;20084;-40
2023/01/01 04:49:23;;;;;;;5.93;3.42;;;;;;;2.86;100.00;98681.81;5105069;28;20498;-40
2023/01/01 04:51:49;;;;;;;9.13;4.97;;;;;;;2.82;100.00;98673.31;5071548;28;20135;-40
2023/01/01 04:54:34;;;;;;;7.45;3.92;;;;;;;2.87;100.00;98666.38;5093202;28;20047;-48
2023/01/01 04:56:59;;;;;;;9.27;4.28;;;;;;;2.92;100.00;98676.56;5108928;28;20046;-40
2023/01/01 04:59:44;;;;;;;7.43;3.80;;;;;;;2.90;100.00;98676.56;5084849;28;21596;-40
2023/01/01 05:02:28;;;;;;;6.50;2.63;;;;;;;2.87;100.00;98668.09;5086716;28;20135;-40
2023/01/01 05:05:13;;;;;;;7.82;4.70;;;;;;;2.81;100.00;98663.09;5063823;28;20144;-40
2023/01/01 05:07:39;;;;;;;4.82;2.22;;;;;;;2.78;100.00;98661.41;5066787;28;20032;-40
2023/01/01 05:10:23;;;;;;;8.23;4.93;;;;;;;2.78;100.00;98653.72;5075099;28;20139;-39
2023/01/01 05:12:49;;;;;;;8.55;4.18;;;;;;;2.79;100.00;98660.53;5087921;28;20039;-40
2023/01/01 05:15:57;;;;;;;7.38;4.00;;;;;;;2.78;100.00;98660.56;5097772;28;20055;-40
2023/01/01 05:19:00;;;;;;;9.45;5.07;;;;;;;2.84;100.00;98663.00;5103541;28;20075;-40
2023/01/01 05:21:47;;;;;;;7.80;4.53;;;;;;;2.89;100.00;98674.88;5095029;28;20036;-40
2023/01/01 05:24:50;;;;;;;4.53;2.35;;;;;;;2.88;100.00;98672.34;5067969;28;20043;-40
2023/01/01 05:27:16;;;;;;;3.55;2.03;;;;;;;2.88;100.00;98664.63;5068756;28;20075;-39
2023/01/01 05:30:00;;;;;;;7.60;3.83;;;;;;;2.88;100.00;98662.91;5102498;28;20110;-40
2023/01/01 05:32:47;;;;;;;7.45;4.25;;;;;;;2.90;100.00;98665.47;5100936;28;20060;-40
2023/01/01 05:35:13;;;;;;;11.18;4.68;;;;;;;2.92;100.00;98663.72;5098376;28;20508;-40
2023/01/01 05:37:39;;;;;;;2.22;1.65;;;;;;;2.95;100.00;98655.94;5087933;28;20044;-40
2023/01/01 05:40:05;;;;;;;6.65;3.40;;;;;;;2.81;100.00;98648.53;5093515;28;20046;-40
2023/01/01 05:43:09;;;;;;;8.68;4.97;;;;;;;2.90;100.00;98662.88;5104052;28;20130;-40
2023/01/01 05:45:35;;;;;;;6.32;3.22;;;;;;;2.90;100.00;98643.19;5086205;28;20041;-40
2023/01/01 05:48:01;;;;;;;7.78;4.60;;;;;;;2.92;100.00;98633.75;5109088;28;20043;-38
2023/01/01 05:51:05;;;;;;;6.97;3.80;;;;;;;2.91;100.00;98633.78;5101876;28;20035;-40
2023/01/01 05:53:50;;;;;;;7.93;4.60;;;;;;;2.76;100.00;98605.88;5097471;28;20040;-40
2023/01/01 05:56:53;;;;;;;5.70;3.00;;;;;;;2.74;100.00;98597.34;5087530;28;20043;-39
2023/01/01 05:59:38;;;;;;;9.85;4.90;;;;;;;2.96;100.00;98624.28;5099316;28;20036;-40
2023/01/01 06:02:22;;;;;;;6.78;4.30;;;;;;;2.97;100.00;98621.69;5111646;28;20067;-40
2023/01/01 06:05:25;;;;;;;4.72;3.22;;;;;;;2.96;100.00;98630.25;5085254;28;20075;-39
2023/01/01 06:08:09;;;;;;;6.85;3.63;;;;;;;2.97;100.00;98637.09;5091304;28;20051;-40
2023/01/01 06:11:00;;;;;;;5.25;3.00;;;;;;;2.77;100.00;98597.31;5111443;28;20431;-39
2023/01/01 06:13:27;;;;;;;4.63;2.50;;;;;;;2.94;100.00;98637.13;5086586;28;20929;-39
2023/01/01 06:16:32;;;;;;;7.93;4.50;;;;;;;2.96;100.00;98627.69;5104540;28;20419;-41
2023/01/01 06:18:58;;;;;;;8.18;5.03;;;;;;;2.93;100.00;98608.94;5089635;28;20059;-40
2023/01/01 06:21:43;;;;;;;7.25;4.05;;;;;;;2.99;100.00;98612.19;5101005;28;20067;-40
2023/01/01 06:24:45;;;;;;;2.50;1.48;;;;;;;2.84;100.00;98578.31;5093380;28;20119;-40
2023/01/01 06:27:30;;;;;;;3.10;1.70;;;;;;;2.97;100.00;98611.41;5091092;28;20042;-39
2023/01/01 06:30:14;;;;;;;5.95;3.72;;;;;;;3.01;100.00;98603.63;5110295;27;20200;-40
2023/01/01 06:33:20;;;;;;;10.10;4.43;;;;;;;2.86;100.00;98574.00;5097842;28;20050;-40
2023/01/01 06:35:46;;;;;;;6.72;4.25;;;;;;;3.07;100.00;98608.63;5082259;28;20039;-40
2023/01/01 06:38:31;;;;;;;4.50;2.50;;;;;;;3.09;100.00;98594.88;5106702;28;20423;-39
2023/01/01 06:41:18;;;;;;;6.88;4.35;;;;;;;3.08;100.00;98592.38;5098450;28;20047;-40
2023/01/01 06:43:44;;;;;;;7.13;4.55;;;;;;;3.16;100.00;98591.31;5102957;28;20050;-40
2023/01/01 06:46:29;;;;;;;7.70;3.95;;;;;;;3.18;100.00;98587.00;5090633;28;20042;-41
2023/01/01 06:49:17;;;;;;;7.18;4.45;;;;;;;3.24;100.00;98580.88;5090357;28;20040;-41
2023/01/01 06:51:43;;;;;;;6.10;4.15;;;;;;;3.21;100.00;98561.22;5098692;28;20135;-41
2023/01/01 06:55:05;;;;;;;7.88;3.90;;;;;;;3.35;100.00;98569.44;5107831;28;20036;-40
2023/01/01 06:57:49;;;;;;;6.15;3.47;;;;;;;3.21;100.00;98542.41;5106637;28;20042;-39
2023/01/01 07:00:52;;;;;;;5.05;3.05;;;;;;;3.29;100.00;98549.06;5106239;28;20070;-40
2023/01/01 07:03:56;;;;;;;4.40;2.78;;;;;;;3.28;100.00;98546.53;5089837;28;20077;-40
2023/01/01 07:07:00;;;;;;;4.32;2.83;;;;;;;3.29;100.00;98548.22;5080053;28;20047;-40
2023/01/01 07:09:44;;;;;;;4.50;2.65;;;;;;;3.28;100.00;98567.91;5089620;28;20129;-40
2023/01/01 07:12:29;;;;;;;5.22;3.38;;;;;;;3.16;100.00;98544.22;5098256;28;20044;-40
2023/01/01 07:15:31;;;;;;;5.00;3.30;;;;;;;3.32;100.00;98564.41;5070024;28;20045;-39
2023/01/01 07:18:16;;;;;;;6.95;3.75;;;;;;;3.25;100.00;98562.00;5095113;28;20126;-39
2023/01/01 07:21:02;;;;;;;6.63;4.00;;;;;;;3.26;100.00;98569.66;5102595;28;20093;-40
2023/01/01 07:24:05;;;;;;;5.07;3.15;;;;;;;3.26;100.00;98555.97;5093168;28;20522;-39
2023/01/01 07:27:08;;;;;;;4.35;2.45;;;;;;;3.23;100.00;98556.06;5079477;28;20067;-40
2023/01/01 07:30:10;;;;;;;4.28;2.15;;;;;;;3.20;100.00;98558.69;5108528;28;20506;-39
2023/01/01 07:32:55;;;;;;;5.30;3.35;;;;;;;3.07;100.00;98521.34;5103441;28;20154;-40
2023/01/01 07:35:58;;;;;;;6.18;3.00;;;;;;;3.27;100.00;98563.66;5076189;28;20409;-41
2023/01/01 07:39:01;;;;;;;3.25;2.33;;;;;;;3.27;100.00;98563.66;5101448;28;20514;-41
2023/01/01 07:41:45;;;;;;;6.28;3.92;;;;;;;3.30;100.00;98542.19;5097427;28;20040;-41
2023/01/01 07:44:14;;;;;;;3.30;1.80;;;;;;;3.33;100.00;98539.56;5081037;28;20118;-40
2023/01/01 07:46:59;;;;;;;5.45;3.33;;;;;;;3.31;100.00;98534.44;5089456;28;20123;-40
2023/01/01 07:49:24;;;;;;;6.80;3.42;;;;;;;3.34;100.00;98534.41;5098035;28;20039;-41
2023/01/01 07:52:09;;;;;;;5.68;3.75;;;;;;;3.36;100.00;98531.75;5100286;28;20381;-41
2023/01/01 07:54:53;;;;;;;3.55;2.58;;;;;;;3.35;100.00;98535.22;5093932;28;20040;-41
2023/01/01 07:57:19;;;;;;;4.93;2.97;;;;;;;3.35;100.00;98522.38;5062167;28;20483;-40
2023/01/01 08:00:41;;;;;;;3.85;2.28;;;;;;;3.40;100.00;98510.28;5108274;28;20334;-39
2023/01/01 08:03:44;;;;;;;4.93;2.90;;;;;;;3.42;100.00;98514.50;5083450;28;20085;-41
2023/01/01 08:06:28;;;;;;;4.97;3.13;;;;;;;3.42;100.00;98508.50;5096245;28;20043;-40
2023/01/01 08:09:31;;;;;;;6.20;3.33;;;;;;;3.50;100.00;98516.88;5105159;28;20135;-41
2023/01/01 08:11:57;;;;;;;6.03;4.00;;;;;;;3.54;100.00;98515.91;5096020;28;20043;-41
2023/01/01 08:15:19;;;;;;;8.05;4.30;;;;;;;3.61;100.00;98520.00;5097962;28;20036;-42
2023/01/01 08:18:06;;;;;;;7.63;3.40;;;;;;;3.48;100.00;98499.81;5069837;28;20779;-41
2023/01/01 08:21:09;;;;;;;7.25;3.30;;;;;;;3.63;100.00;98515.69;5107033;28;20050;-40
2023/01/01 08:23:35;;;;;;;6.72;3.50;;;;;;;3.67;100.00;98519.84;5094240;28;20036;-40
2023/01/01 08:26:01;;;;;;;5.80;2.95;;;;;;;3.72;100.00;98504.31;5089286;28;20480;-41
2023/01/01 08:28:46;;;;;;;4.88;2.85;;;;;;;3.70;100.00;98513.81;5104340;28;20122;-41
2023/01/01 08:31:30;;;;;;;5.38;2.88;;;;;;;3.67;100.00;98503.59;5106005;28;20096;-40
2023/01/01 08:34:34;;;;;;;5.82;3.30;;;;;;;3.73;100.00;98508.56;5104362;28;20081;-41
2023/01/01 08:36:59;;;;;;;7.28;3.45;;;;;;;3.60;100.00;98479.81;5098146;28;20036;-41
2023/01/01 08:40:06;;;;;;;7.32;3.40;;;;;;;3.78;100.00;98494.72;5068435;28;20041;-41
2023/01/01 08:42:50;;;;;;;2.28;1.58;;;;;;;3.78;100.00;98497.28;5093353;28;20039;-40
2023/01/01 08:45:53;;;;;;;4.70;3.13;;;;;;;3.80;100.00;98492.13;5097047;28;20087;-42
2023/01/01 08:48:38;;;;;;;5.47;2.80;;;;;;;3.83;100.00;98492.03;5096736;28;20039;-40
2023/01/01 08:51:40;;;;;;;5.50;3.28;;;;;;;3.81;100.00;98480.97;5093518;28;20043;-42
2023/01/01 08:54:43;;;;;;;7.45;3.70;;;;;;;3.83;100.00;98479.19;5088758;28;20598;-41
2023/01/01 08:57:30;;;;;;;7.20;4.35;;;;;;;3.81;100.00;98471.53;5086988;28;20507;-40
2023/01/01 08:59:56;;;;;;;5.70;3.38;;;;;;;3.85;100.00;98485.13;5103952;28;20085;-40
2023/01/01 09:02:22;;;;;;;8.32;4.63;;;;;;;3.84;100.00;98479.16;5092139;28;20453;-40
2023/01/01 09:04:48;;;;;;;7.65;3.85;;;;;;;3.83;100.00;98468.91;5104832;28;20093;-41
2023/01/01 09:07:51;;;;;;;6.93;4.47;;;;;;;3.84;100.00;98491.16;5094664;28;20038;-41
2023/01/01 09:10:35;;;;;;;7.95;3.80;;;;;;;3.86;100.00;98470.56;5093763;28;20047;-39
2023/01/01 09:13:23;;;;;;;6.65;4.25;;;;;;;3.92;100.00;98460.97;5088374;28;20055;-41
2023/01/01 09:15:49;;;;;;;9.07;4.95;;;;;;;3.91;100.00;98450.72;5103553;28;20043;-41
2023/01/01 09:18:33;;;;;;;3.63;2.03;;;;;;;3.95;100.00;98453.16;5107440;28;20093;-41
2023/01/01 09:21:18;;;;;;;6.03;3.65;;;;;;;3.92;100.00;98454.97;5108849;28;20131;-43
2023/01/01 09:24:02;;;;;;;7.47;4.05;;;;;;;3.91;100.00;98445.56;5103741;28;20126;-41
2023/01/01 09:27:24;;;;;;;9.40;3.65;;;;;;;3.91;100.00;98440.41;5088057;28;20074;-40
2023/01/01 09:29:50;;;;;;;4.22;2.63;;;;;;;3.90;100.00;98431.03;5107071;28;20507;-40
2023/01/01 09:32:53;;;;;;;9.80;4.70;;;;;;;3.96;100.00;98433.44;5096481;28;20082;-39
2023/01/01 09:35:37;;;;;;;8.07;4.53;;;;;;;4.00;100.00;98435.00;5091847;28;20047;-40
2023/01/01 09:38:41;;;;;;;8.27;5.00;;;;;;;4.04;100.00;98439.19;5096293;28;20039;-40
2023/01/01 09:41:44;;;;;;;6.53;3.85;;;;;;;4.07;100.00;98439.97;5110738;28;20581;-40
2023/01/01 09:44:43;;;;;;;7.60;4.10;;;;;;;4.06;100.00;98442.56;5092320;28;20067;-41
2023/01/01 09:47:29;;;;;;;;;;;;;;;4.03;100.00;98440.91;5062488;28;20465;-41
2023/01/01 09:50:39;;;;;;;10.45;4.78;;;;;;;4.02;100.00;98426.38;5099166;28;19962;-41
2023/01/01 09:53:36;;;;;;;8.40;4.63;;;;;;;4.02;100.00;98430.69;5098007;28;20134;-40
2023/01/01 09:56:22;;;;;;;8.23;4.13;;;;;;;4.05;100.00;98430.59;5093296;28;20061;-40
2023/01/01 09:58:48;;;;;;;8.10;4.15;;;;;;;4.04;100.00;98422.03;5112005;28;20101;-40
2023/01/01 10:02:07;;;;;;;7.43;4.13;;;;;;;4.08;100.00;98409.94;5091040;28;20146;-41
2023/01/01 10:05:27;;;;;;;7.88;4.13;;;;;;;4.13;100.00;98410.66;5008938;28;20053;-40
2023/01/01 10:08:01;;;;;;;7.20;3.85;;;;;;;4.14;100.00;98408.03;5026851;28;20041;-40
2023/01/01 10:11:11;;;;;;;9.30;4.07;;;;;;;4.14;100.00;98404.59;4996627;28;20103;-42
2023/01/01 10:14:14;;;;;;;6.63;3.95;;;;;;;4.18;100.00;98390.78;5026978;28;20144;-41
2023/01/01 10:17:00;;;;;;;5.97;3.55;;;;;;;4.19;100.00;98379.59;5007960;28;20034;-39
2023/01/01 10:19:47;;;;;;;5.75;3.92;;;;;;;4.22;100.00;98367.50;5025212;28;20045;-42
2023/01/01 10:22:19;;;;;;;5.65;3.72;;;;;;;4.13;100.00;98351.50;4993856;28;20127;-40
2023/01/01 10:24:49;;;;;;;6.88;4.05;;;;;;;4.28;100.00;98373.34;4994177;28;20053;-40
2023/01/01 10:28:11;;;;;;;5.97;3.47;;;;;;;4.26;100.00;98371.66;5019334;28;20383;-40
2023/01/01 10:30:36;;;;;;;7.10;4.03;;;;;;;4.08;100.00;98336.19;5021222;28;20065;-40
2023/01/01 10:33:21;;;;;;;4.07;2.28;;;;;;;4.28;100.00;98363.06;4990816;28;20519;-39
2023/01/01 10:36:24;;;;;;;6.70;3.55;;;;;;;4.27;100.00;98357.06;5025841;28;20515;-40
2023/01/01 10:39:11;;;;;;;5.30;3.03;;;;;;;4.26;100.00;98351.06;5022208;28;20124;-41
2023/01/01 10:41:56;;;;;;;5.07;3.08;;;;;;;4.28;100.00;98352.75;5078614;28;20617;-39
2023/01/01 10:44:40;;;;;;;6.07;3.20;;;;;;;4.31;100.00;98350.09;5109771;28;20138;-40
2023/01/01 10:48:02;;;;;;;3.17;1.67;;;;;;;4.29;100.00;98336.44;5080278;28;20531;-41
2023/01/01 10:51:05;;;;;;;5.40;2.95;;;;;;;4.30;100.00;98340.69;5095377;28;20131;-39
2023/01/01 10:53:51;;;;;;;7.82;3.05;;;;;;;4.33;100.00;98344.03;5096404;28;20044;-39
2023/01/01 10:56:53;;;;;;;5.63;3.17;;;;;;;4.38;100.00;98326.72;5109507;28;20050;-39
2023/01/01 11:00:23;;;;;;;3.35;2.38;;;;;;;4.41;100.00;98326.59;5069035;28;20468;-40
2023/01/01 11:03:19;;;;;;;4.32;2.47;;;;;;;4.43;100.00;98327.41;5066042;28;20044;-39
2023/01/01 11:06:22;;;;;;;3.42;2.58;;;;;;;4.47;100.00;98331.56;5081552;28;20834;-40
2023/01/01 11:08:53;;;;;;;6.05;3.20;;;;;;;4.50;100.00;98322.91;5088873;28;20475;-42
2023/01/01 11:11:44;;;;;;;;;;;;;;;4.53;100.00;98330.53;5082315;28;20032;-40
2023/01/01 11:14:47;;;;;;;4.40;2.97;;;;;;;4.54;100.00;98327.06;5082493;28;19920;-39
2023/01/01 11:17:20;;;;;;;5.05;2.70;;;;;;;4.58;100.00;98320.94;5082289;28;20048;-39
2023/01/01 11:20:06;;;;;;;4.10;2.58;;;;;;;4.57;100.00;98319.25;5100492;28;20047;-40
2023/01/01 11:22:47;;;;;;;3.42;2.20;;;;;;;4.54;100.00;98314.19;5081460;28;20035;-46
2023/01/01 11:25:50;;;;;;;3.72;2.30;;;;;;;4.54;100.00;98309.06;5076116;28;20059;-40
2023/01/01 11:28:35;;;;;;;3.67;2.50;;;;;;;4.54;100.00;98312.47;5099025;28;20177;-39
2023/01/01 11:31:20;;;;;;;3.00;2.13;;;;;;;4.39;100.00;98286.41;5082548;28;20626;-40
2023/01/01 11:33:52;;;;;;;3.33;2.00;;;;;;;4.53;100.00;98307.38;5079491;28;20275;-39
2023/01/01 11:36:21;;;;;;;3.72;2.83;;;;;;;4.50;100.00;98304.91;5062201;28;20134;-40
2023/01/01 11:39:25;;;;;;;4.78;2.90;;;;;;;4.48;100.00;98306.66;5093559;28;20101;-40
2023/01/01 11:42:28;;;;;;;3.55;2.08;;;;;;;4.47;100.00;98307.56;5105033;27;20117;-40
2023/01/01 11:44:57;;;;;;;10.70;2.83;;;;;;;4.45;100.00;98296.50;5079655;28;20420;-40
2023/01/01 11:47:42;;;;;;;4.57;2.57;;;;;;;4.47;100.00;98295.53;5064382;28;20051;-41
2023/01/01 11:50:50;;;;;;;4.82;2.83;;;;;;;4.49;100.00;98285.22;5086953;27;20304;-39
2023/01/01 11:53:45;;;;;;;4.45;2.13;;;;;;;4.50;100.00;98282.56;5080140;28;20131;-39
2023/01/01 11:56:15;;;;;;;4.00;1.75;;;;;;;4.51;100.00;98280.84;5086696;28;20046;-40
2023/01/01 11:59:11;;;;;;;3.20;2.00;;;;;;;4.45;100.00;98269.00;5083582;28;20040;-40
2023/01/01 12:02:25;;;;;;;4.07;2.40;;;;;;;4.50;100.00;98271.44;5078394;28;20049;-40
2023/01/01 12:05:40;;;;;;;5.03;2.92;;;;;;;4.49;100.00;98278.34;5081058;28;20039;-39
2023/01/01 12:08:32;;;;;;;3.28;2.38;;;;;;;4.36;100.00;98245.31;5084838;28;20565;-41
2023/01/01 12:11:40;;;;;;;6.15;2.20;;;;;;;4.51;100.00;98273.13;5080716;28;20055;-40
2023/01/01 12:14:56;;;;;;;2.92;2.40;;;;;;;4.52;100.00;98269.66;5080797;28;20042;-41
2023/01/01 12:18:06;;;;;;;5.30;2.47;;;;;;;4.50;100.00;98268.88;5081699;28;20105;-40
2023/01/01 12:20:37;;;;;;;2.88;1.90;;;;;;;4.50;100.00;98251.69;5091746;28;20039;-41
2023/01/01 12:23:23;;;;;;;4.53;3.05;;;;;;;4.51;100.00;98249.94;5069401;28;20569;-41
2023/01/01 12:26:44;;;;;;;4.13;2.58;;;;;;;4.49;100.00;98262.06;5068728;28;20052;-41
2023/01/01 12:29:30;;;;;;;1.58;1.20;;;;;;;4.49;100.00;98252.59;5082099;28;20836;-40
2023/01/01 12:32:51;;;;;;;2.40;1.55;;;;;;;4.52;100.00;98262.78;5081429;28;20131;-42
2023/01/01 12:35:46;;;;;;;5.85;2.40;;;;;;;4.51;100.00;98262.81;5067651;28;20041;-39
2023/01/01 12:38:33;;;;;;;3.20;1.88;;;;;;;4.52;100.00;98261.94;5069985;28;20638;-40
2023/01/01 12:42:05;;;;;;;3.05;1.75;;;;;;;4.51;100.00;98249.94;5073458;28;20531;-41
2023/01/01 12:45:08;;;;;;;2.40;1.65;;;;;;;4.51;100.00;98242.22;5013628;28;20041;-40
2023/01/01 12:48:11;;;;;;;2.15;1.55;;;;;;;4.50;100.00;98251.69;5066804;28;20055;-40
2023/01/01 12:50:46;;;;;;;3.65;2.55;;;;;;;4.53;100.00;98245.59;5098494;28;20041;-40
2023/01/01 12:53:37;;;;;;;3.88;2.85;;;;;;;4.58;100.00;98246.28;5084013;28;20083;-41
2023/01/01 12:56:27;;;;;;;4.68;2.67;;;;;;;4.58;100.00;98246.28;5092575;28;20064;-41
2023/01/01 12:59:30;;;;;;;5.55;3.20;;;;;;;4.62;100.00;98245.28;5075563;28;20130;-39
2023/01/01 13:02:17;;;;;;;6.55;2.90;;;;;;;4.47;100.00;98212.34;5094135;28;20060;-41
2023/01/01 13:05:21;;;;;;;4.70;2.92;;;;;;;4.64;100.00;98240.94;5071303;28;20051;-40
2023/01/01 13:08:24;;;;;;;3.50;2.40;;;;;;;4.63;100.00;98247.81;5075568;28;20053;-40
2023/01/01 13:11:10;;;;;;;3.53;2.50;;;;;;;4.62;100.00;98241.00;5073870;28;20040;-41
2023/01/01 13:13:54;;;;;;;2.95;1.95;;;;;;;4.62;100.00;98241.00;5076869;28;20074;-42
2023/01/01 13:16:41;;;;;;;4.13;2.45;;;;;;;4.63;100.00;98226.41;5066780;28;20063;-40
2023/01/01 13:19:33;;;;;;;4.80;3.38;;;;;;;4.63;100.00;98234.97;5106589;27;20044;-39
2023/01/01 13:22:55;;;;;;;4.72;2.70;;;;;;;4.63;100.00;98223.81;5076472;28;20045;-40